sensor_id;sensor_type;location;lat;lon;timestamp;temperature;humidity
59847;DHT22;45728;48.788;2.302;2023-09-30T00:00:27;14.20;99.90
59847;DHT22;45728;48.788;2.302;2023-09-30T00:02:53;14.20;99.90
59847;DHT22;45728;48.788;2.302;2023-09-30T00:05:19;14.20;99.90
59847;DHT22;45728;48.788;2.302;2023-09-30T00:07:48;14.10;99.90
59847;DHT22;45728;48.788;2.302;2023-09-30T00:10:14;14.00;99.90
59847;DHT22;45728;48.788;2.302;2023-09-30T00:12:40;14.00;99.90
59847;DHT22;45728;48.788;2.302;2023-09-30T00:15:07;13.90;99.90
59847;DHT22;45728;48.788;2.302;2023-09-30T00:17:33;14.00;99.90
59847;DHT22;45728;48.788;2.302;2023-09-30T00:19:59;14.10;99.90
59847;DHT22;45728;48.788;2.302;2023-09-30T00:22:25;14.10;99.90
59847;DHT22;45728;48.788;2.302;2023-09-30T00:24:51;14.00;99.90
59847;DHT22;45728;48.788;2.302;2023-09-30T00:27:17;14.00;99.90
59847;DHT22;45728;48.788;2.302;2023-09-30T00:29:43;14.00;99.90
59847;DHT22;45728;48.788;2.302;2023-09-30T00:32:09;14.00;99.90
59847;DHT22;45728;48.788;2.302;2023-09-30T00:34:35;14.00;99.90
59847;DHT22;45728;48.788;2.302;2023-09-30T00:37:02;14.00;99.90
59847;DHT22;45728;48.788;2.302;2023-09-30T00:39:28;13.90;99.90
59847;DHT22;45728;48.788;2.302;2023-09-30T00:41:58;13.80;99.90
59847;DHT22;45728;48.788;2.302;2023-09-30T00:44:29;13.80;99.90
59847;DHT22;45728;48.788;2.302;2023-09-30T00:46:55;13.80;99.90
59847;DHT22;45728;48.788;2.302;2023-09-30T00:49:23;13.80;99.90
59847;DHT22;45728;48.788;2.302;2023-09-30T00:51:50;13.80;99.90
59847;DHT22;45728;48.788;2.302;2023-09-30T00:54:17;13.80;99.90
59847;DHT22;45728;48.788;2.302;2023-09-30T00:56:46;13.70;99.90
59847;DHT22;45728;48.788;2.302;2023-09-30T00:59:15;13.60;99.90
59847;DHT22;45728;48.788;2.302;2023-09-30T01:01:42;13.60;99.90
59847;DHT22;45728;48.788;2.302;2023-09-30T01:04:11;13.60;99.90
59847;DHT22;45728;48.788;2.302;2023-09-30T01:06:38;13.70;99.90
59847;DHT22;45728;48.788;2.302;2023-09-30T01:09:04;13.60;99.90
59847;DHT22;45728;48.788;2.302;2023-09-30T01:11:30;13.60;99.90
59847;DHT22;45728;48.788;2.302;2023-09-30T01:13:57;13.50;99.90
59847;DHT22;45728;48.788;2.302;2023-09-30T01:16:23;13.50;99.90
59847;DHT22;45728;48.788;2.302;2023-09-30T01:18:49;13.40;99.90
59847;DHT22;45728;48.788;2.302;2023-09-30T01:21:16;13.40;99.90
59847;DHT22;45728;48.788;2.302;2023-09-30T01:23:44;13.50;99.90
59847;DHT22;45728;48.788;2.302;2023-09-30T01:26:13;13.50;99.90
59847;DHT22;45728;48.788;2.302;2023-09-30T01:28:40;13.50;99.90
59847;DHT22;45728;48.788;2.302;2023-09-30T01:31:06;13.40;99.90
59847;DHT22;45728;48.788;2.302;2023-09-30T01:33:32;13.40;99.90
59847;DHT22;45728;48.788;2.302;2023-09-30T01:35:59;13.40;99.90
59847;DHT22;45728;48.788;2.302;2023-09-30T01:38:25;13.40;99.90
59847;DHT22;45728;48.788;2.302;2023-09-30T01:40:52;13.50;99.90
59847;DHT22;45728;48.788;2.302;2023-09-30T01:43:18;13.40;99.90
59847;DHT22;45728;48.788;2.302;2023-09-30T01:45:44;13.40;99.90
59847;DHT22;45728;48.788;2.302;2023-09-30T01:48:10;13.40;99.90
59847;DHT22;45728;48.788;2.302;2023-09-30T01:50:39;13.40;99.90
59847;DHT22;45728;48.788;2.302;2023-09-30T01:53:06;13.40;99.90
59847;DHT22;45728;48.788;2.302;2023-09-30T01:55:33;13.40;99.90
59847;DHT22;45728;48.788;2.302;2023-09-30T01:57:59;13.40;99.90
59847;DHT22;45728;48.788;2.302;2023-09-30T02:00:26;13.40;99.90
59847;DHT22;45728;48.788;2.302;2023-09-30T02:02:57;13.40;99.90
59847;DHT22;45728;48.788;2.302;2023-09-30T02:05:23;13.40;99.90
59847;DHT22;45728;48.788;2.302;2023-09-30T02:07:50;13.40;99.90
59847;DHT22;45728;48.788;2.302;2023-09-30T02:10:17;13.30;99.90
59847;DHT22;45728;48.788;2.302;2023-09-30T02:12:46;13.20;99.90
59847;DHT22;45728;48.788;2.302;2023-09-30T02:15:13;13.20;99.90
59847;DHT22;45728;48.788;2.302;2023-09-30T02:17:39;13.20;99.90
59847;DHT22;45728;48.788;2.302;2023-09-30T02:20:06;13.20;99.90
59847;DHT22;45728;48.788;2.302;2023-09-30T02:22:42;13.20;99.90
59847;DHT22;45728;48.788;2.302;2023-09-30T02:25:09;13.20;99.90
59847;DHT22;45728;48.788;2.302;2023-09-30T02:27:35;13.20;99.90
59847;DHT22;45728;48.788;2.302;2023-09-30T02:30:02;13.20;99.90
59847;DHT22;45728;48.788;2.302;2023-09-30T02:32:28;13.30;99.90
59847;DHT22;45728;48.788;2.302;2023-09-30T02:34:54;13.30;99.90
59847;DHT22;45728;48.788;2.302;2023-09-30T02:37:20;13.30;99.90
59847;DHT22;45728;48.788;2.302;2023-09-30T02:39:46;13.30;99.90
59847;DHT22;45728;48.788;2.302;2023-09-30T02:42:12;13.30;99.90
59847;DHT22;45728;48.788;2.302;2023-09-30T02:44:39;13.20;99.90
59847;DHT22;45728;48.788;2.302;2023-09-30T02:47:05;13.30;99.90
59847;DHT22;45728;48.788;2.302;2023-09-30T02:49:33;13.20;99.90
59847;DHT22;45728;48.788;2.302;2023-09-30T02:51:59;13.20;99.90
59847;DHT22;45728;48.788;2.302;2023-09-30T02:54:25;13.10;99.90
59847;DHT22;45728;48.788;2.302;2023-09-30T02:56:51;13.10;99.90
59847;DHT22;45728;48.788;2.302;2023-09-30T02:59:18;13.10;99.90
59847;DHT22;45728;48.788;2.302;2023-09-30T03:01:44;13.10;99.90
59847;DHT22;45728;48.788;2.302;2023-09-30T03:04:10;13.10;99.90
59847;DHT22;45728;48.788;2.302;2023-09-30T03:06:39;13.10;99.90
59847;DHT22;45728;48.788;2.302;2023-09-30T03:09:05;13.10;99.90
59847;DHT22;45728;48.788;2.302;2023-09-30T03:11:31;13.00;99.90
59847;DHT22;45728;48.788;2.302;2023-09-30T03:13:58;13.00;99.90
59847;DHT22;45728;48.788;2.302;2023-09-30T03:16:24;13.00;99.90
59847;DHT22;45728;48.788;2.302;2023-09-30T03:18:51;13.00;99.90
59847;DHT22;45728;48.788;2.302;2023-09-30T03:21:17;13.00;99.90
59847;DHT22;45728;48.788;2.302;2023-09-30T03:23:43;13.00;99.90
59847;DHT22;45728;48.788;2.302;2023-09-30T03:26:10;13.00;99.90
59847;DHT22;45728;48.788;2.302;2023-09-30T03:28:37;12.90;99.90
59847;DHT22;45728;48.788;2.302;2023-09-30T03:31:04;12.90;99.90
59847;DHT22;45728;48.788;2.302;2023-09-30T03:33:32;12.90;99.90
59847;DHT22;45728;48.788;2.302;2023-09-30T03:35:58;12.90;99.90
59847;DHT22;45728;48.788;2.302;2023-09-30T03:38:26;12.90;99.90
59847;DHT22;45728;48.788;2.302;2023-09-30T03:40:52;12.80;99.90
59847;DHT22;45728;48.788;2.302;2023-09-30T03:43:21;12.80;99.90
59847;DHT22;45728;48.788;2.302;2023-09-30T03:45:47;12.70;99.90
59847;DHT22;45728;48.788;2.302;2023-09-30T03:48:13;12.80;99.90
59847;DHT22;45728;48.788;2.302;2023-09-30T03:50:39;12.80;99.90
59847;DHT22;45728;48.788;2.302;2023-09-30T03:53:06;12.90;99.90
59847;DHT22;45728;48.788;2.302;2023-09-30T03:55:35;12.90;99.90
59847;DHT22;45728;48.788;2.302;2023-09-30T03:58:03;12.90;99.90
59847;DHT22;45728;48.788;2.302;2023-09-30T04:00:29;12.90;99.90
59847;DHT22;45728;48.788;2.302;2023-09-30T04:02:56;12.90;99.90
59847;DHT22;45728;48.788;2.302;2023-09-30T04:05:25;12.90;99.90
59847;DHT22;45728;48.788;2.302;2023-09-30T04:08:02;12.90;99.90
59847;DHT22;45728;48.788;2.302;2023-09-30T04:10:28;12.90;99.90
59847;DHT22;45728;48.788;2.302;2023-09-30T04:12:57;12.90;99.90
59847;DHT22;45728;48.788;2.302;2023-09-30T04:15:24;12.80;99.90
59847;DHT22;45728;48.788;2.302;2023-09-30T04:17:50;12.90;99.90
59847;DHT22;45728;48.788;2.302;2023-09-30T04:20:17;12.90;99.90
59847;DHT22;45728;48.788;2.302;2023-09-30T04:22:47;12.80;99.90
59847;DHT22;45728;48.788;2.302;2023-09-30T04:25:15;12.80;99.90
59847;DHT22;45728;48.788;2.302;2023-09-30T04:27:42;12.80;99.90
59847;DHT22;45728;48.788;2.302;2023-09-30T04:30:09;12.80;99.90
59847;DHT22;45728;48.788;2.302;2023-09-30T04:32:37;12.70;99.90
59847;DHT22;45728;48.788;2.302;2023-09-30T04:35:05;12.80;99.90
59847;DHT22;45728;48.788;2.302;2023-09-30T04:37:31;12.80;99.90
59847;DHT22;45728;48.788;2.302;2023-09-30T04:39:57;12.70;99.90
59847;DHT22;45728;48.788;2.302;2023-09-30T04:42:24;12.60;99.90
59847;DHT22;45728;48.788;2.302;2023-09-30T04:44:52;12.60;99.90
59847;DHT22;45728;48.788;2.302;2023-09-30T04:47:18;12.60;99.90
59847;DHT22;45728;48.788;2.302;2023-09-30T04:49:45;12.50;99.90
59847;DHT22;45728;48.788;2.302;2023-09-30T04:52:11;12.30;99.90
59847;DHT22;45728;48.788;2.302;2023-09-30T04:54:37;12.40;99.90
59847;DHT22;45728;48.788;2.302;2023-09-30T04:57:03;12.30;99.90
59847;DHT22;45728;48.788;2.302;2023-09-30T04:59:29;12.40;99.90
59847;DHT22;45728;48.788;2.302;2023-09-30T05:01:55;12.50;99.90
59847;DHT22;45728;48.788;2.302;2023-09-30T05:04:22;12.50;99.90
59847;DHT22;45728;48.788;2.302;2023-09-30T05:06:50;12.50;99.90
59847;DHT22;45728;48.788;2.302;2023-09-30T05:09:16;12.70;99.90
59847;DHT22;45728;48.788;2.302;2023-09-30T05:11:42;12.70;99.90
59847;DHT22;45728;48.788;2.302;2023-09-30T05:14:08;12.80;99.90
59847;DHT22;45728;48.788;2.302;2023-09-30T05:16:34;12.80;99.90
59847;DHT22;45728;48.788;2.302;2023-09-30T05:19:00;12.80;99.90
59847;DHT22;45728;48.788;2.302;2023-09-30T05:21:26;12.80;99.90
59847;DHT22;45728;48.788;2.302;2023-09-30T05:23:52;12.70;99.90
59847;DHT22;45728;48.788;2.302;2023-09-30T05:26:18;12.70;99.90
59847;DHT22;45728;48.788;2.302;2023-09-30T05:28:44;12.80;99.90
59847;DHT22;45728;48.788;2.302;2023-09-30T05:31:11;12.70;99.90
59847;DHT22;45728;48.788;2.302;2023-09-30T05:33:37;12.60;99.90
59847;DHT22;45728;48.788;2.302;2023-09-30T05:36:03;12.50;99.90
59847;DHT22;45728;48.788;2.302;2023-09-30T05:38:30;12.60;99.90
59847;DHT22;45728;48.788;2.302;2023-09-30T05:40:57;12.70;99.90
59847;DHT22;45728;48.788;2.302;2023-09-30T05:43:25;12.80;99.90
59847;DHT22;45728;48.788;2.302;2023-09-30T05:45:53;12.80;99.90
59847;DHT22;45728;48.788;2.302;2023-09-30T05:48:21;12.70;99.90
59847;DHT22;45728;48.788;2.302;2023-09-30T05:50:47;12.70;99.90
59847;DHT22;45728;48.788;2.302;2023-09-30T05:53:13;12.70;99.90
59847;DHT22;45728;48.788;2.302;2023-09-30T05:55:40;12.70;99.90
59847;DHT22;45728;48.788;2.302;2023-09-30T05:58:13;12.70;99.90
59847;DHT22;45728;48.788;2.302;2023-09-30T06:00:40;12.70;99.90
59847;DHT22;45728;48.788;2.302;2023-09-30T06:03:08;12.60;99.90
59847;DHT22;45728;48.788;2.302;2023-09-30T06:05:34;12.60;99.90
59847;DHT22;45728;48.788;2.302;2023-09-30T06:08:02;12.50;99.90
59847;DHT22;45728;48.788;2.302;2023-09-30T06:10:29;12.50;99.90
59847;DHT22;45728;48.788;2.302;2023-09-30T06:12:56;12.50;99.90
59847;DHT22;45728;48.788;2.302;2023-09-30T06:15:24;12.60;99.90
59847;DHT22;45728;48.788;2.302;2023-09-30T06:17:54;12.60;99.90
59847;DHT22;45728;48.788;2.302;2023-09-30T06:20:21;12.70;99.90
59847;DHT22;45728;48.788;2.302;2023-09-30T06:22:56;12.60;99.90
59847;DHT22;45728;48.788;2.302;2023-09-30T06:25:23;12.70;99.90
59847;DHT22;45728;48.788;2.302;2023-09-30T06:27:50;12.80;99.90
59847;DHT22;45728;48.788;2.302;2023-09-30T06:30:17;12.80;99.90
59847;DHT22;45728;48.788;2.302;2023-09-30T06:32:43;12.80;99.90
59847;DHT22;45728;48.788;2.302;2023-09-30T06:35:29;12.80;99.90
59847;DHT22;45728;48.788;2.302;2023-09-30T06:38:03;12.90;99.90
59847;DHT22;45728;48.788;2.302;2023-09-30T06:40:29;13.00;99.90
59847;DHT22;45728;48.788;2.302;2023-09-30T06:42:55;13.10;99.90
59847;DHT22;45728;48.788;2.302;2023-09-30T06:45:21;13.10;99.90
59847;DHT22;45728;48.788;2.302;2023-09-30T06:47:47;13.20;99.90
59847;DHT22;45728;48.788;2.302;2023-09-30T06:50:14;13.20;99.90
59847;DHT22;45728;48.788;2.302;2023-09-30T06:52:43;13.40;99.90
59847;DHT22;45728;48.788;2.302;2023-09-30T06:55:11;13.40;99.90
59847;DHT22;45728;48.788;2.302;2023-09-30T06:57:39;13.50;99.90
59847;DHT22;45728;48.788;2.302;2023-09-30T07:00:10;13.60;99.90
59847;DHT22;45728;48.788;2.302;2023-09-30T07:02:38;13.70;99.90
59847;DHT22;45728;48.788;2.302;2023-09-30T07:05:07;13.80;99.90
59847;DHT22;45728;48.788;2.302;2023-09-30T07:07:34;13.90;99.90
59847;DHT22;45728;48.788;2.302;2023-09-30T07:10:00;14.00;99.90
59847;DHT22;45728;48.788;2.302;2023-09-30T07:12:26;14.10;99.90
59847;DHT22;45728;48.788;2.302;2023-09-30T07:14:53;14.20;99.90
59847;DHT22;45728;48.788;2.302;2023-09-30T07:17:19;14.30;99.90
59847;DHT22;45728;48.788;2.302;2023-09-30T07:19:45;14.30;99.90
59847;DHT22;45728;48.788;2.302;2023-09-30T07:22:11;14.40;99.90
59847;DHT22;45728;48.788;2.302;2023-09-30T07:24:37;14.50;99.90
59847;DHT22;45728;48.788;2.302;2023-09-30T07:27:05;14.50;99.90
59847;DHT22;45728;48.788;2.302;2023-09-30T07:29:32;14.50;99.90
59847;DHT22;45728;48.788;2.302;2023-09-30T07:31:59;14.50;99.90
59847;DHT22;45728;48.788;2.302;2023-09-30T07:34:25;14.70;99.90
59847;DHT22;45728;48.788;2.302;2023-09-30T07:36:51;14.90;99.90
59847;DHT22;45728;48.788;2.302;2023-09-30T07:39:17;15.00;99.90
59847;DHT22;45728;48.788;2.302;2023-09-30T07:41:43;15.10;99.90
59847;DHT22;45728;48.788;2.302;2023-09-30T07:44:09;15.10;99.90
59847;DHT22;45728;48.788;2.302;2023-09-30T07:46:36;14.90;99.90
59847;DHT22;45728;48.788;2.302;2023-09-30T07:49:02;15.00;99.90
59847;DHT22;45728;48.788;2.302;2023-09-30T07:51:29;15.10;99.90
59847;DHT22;45728;48.788;2.302;2023-09-30T07:53:58;15.20;99.90
59847;DHT22;45728;48.788;2.302;2023-09-30T07:56:24;15.30;99.90
59847;DHT22;45728;48.788;2.302;2023-09-30T07:58:50;15.30;99.90
59847;DHT22;45728;48.788;2.302;2023-09-30T08:01:16;15.40;99.90
59847;DHT22;45728;48.788;2.302;2023-09-30T08:03:42;15.40;99.90
59847;DHT22;45728;48.788;2.302;2023-09-30T08:06:08;15.40;99.90
59847;DHT22;45728;48.788;2.302;2023-09-30T08:08:35;15.60;99.90
59847;DHT22;45728;48.788;2.302;2023-09-30T08:11:01;15.70;99.90
59847;DHT22;45728;48.788;2.302;2023-09-30T08:13:27;15.80;99.90
59847;DHT22;45728;48.788;2.302;2023-09-30T08:15:55;15.90;99.90
59847;DHT22;45728;48.788;2.302;2023-09-30T08:18:21;15.90;99.90
59847;DHT22;45728;48.788;2.302;2023-09-30T08:20:47;15.90;99.90
59847;DHT22;45728;48.788;2.302;2023-09-30T08:23:15;15.90;99.90
59847;DHT22;45728;48.788;2.302;2023-09-30T08:25:41;16.00;99.90
59847;DHT22;45728;48.788;2.302;2023-09-30T08:28:07;16.00;99.90
59847;DHT22;45728;48.788;2.302;2023-09-30T08:30:38;16.10;99.90
59847;DHT22;45728;48.788;2.302;2023-09-30T08:33:04;16.30;99.90
59847;DHT22;45728;48.788;2.302;2023-09-30T08:35:37;16.40;99.90
59847;DHT22;45728;48.788;2.302;2023-09-30T08:38:04;16.30;99.90
59847;DHT22;45728;48.788;2.302;2023-09-30T08:40:30;16.30;99.90
59847;DHT22;45728;48.788;2.302;2023-09-30T08:42:57;16.50;99.90
59847;DHT22;45728;48.788;2.302;2023-09-30T08:45:23;16.60;99.90
59847;DHT22;45728;48.788;2.302;2023-09-30T08:47:50;16.60;99.90
59847;DHT22;45728;48.788;2.302;2023-09-30T08:50:17;16.50;99.90
59847;DHT22;45728;48.788;2.302;2023-09-30T08:52:44;16.70;99.90
59847;DHT22;45728;48.788;2.302;2023-09-30T08:55:11;16.90;99.90
59847;DHT22;45728;48.788;2.302;2023-09-30T08:57:42;17.00;99.90
59847;DHT22;45728;48.788;2.302;2023-09-30T09:00:12;17.10;99.90
59847;DHT22;45728;48.788;2.302;2023-09-30T09:02:39;17.10;99.90
59847;DHT22;45728;48.788;2.302;2023-09-30T09:05:05;17.10;99.90
59847;DHT22;45728;48.788;2.302;2023-09-30T09:07:33;17.20;99.90
59847;DHT22;45728;48.788;2.302;2023-09-30T09:10:11;17.30;99.90
59847;DHT22;45728;48.788;2.302;2023-09-30T09:12:41;17.20;99.90
59847;DHT22;45728;48.788;2.302;2023-09-30T09:15:20;17.10;99.90
59847;DHT22;45728;48.788;2.302;2023-09-30T09:17:46;17.00;99.90
59847;DHT22;45728;48.788;2.302;2023-09-30T09:20:23;17.10;99.90
59847;DHT22;45728;48.788;2.302;2023-09-30T09:22:55;17.40;99.90
59847;DHT22;45728;48.788;2.302;2023-09-30T09:25:22;17.50;99.90
59847;DHT22;45728;48.788;2.302;2023-09-30T09:27:49;17.70;99.90
59847;DHT22;45728;48.788;2.302;2023-09-30T09:30:16;18.40;99.90
59847;DHT22;45728;48.788;2.302;2023-09-30T09:33:01;18.70;99.90
59847;DHT22;45728;48.788;2.302;2023-09-30T09:35:29;19.20;99.90
59847;DHT22;45728;48.788;2.302;2023-09-30T09:37:56;19.40;99.90
59847;DHT22;45728;48.788;2.302;2023-09-30T09:40:24;19.30;99.90
59847;DHT22;45728;48.788;2.302;2023-09-30T09:42:51;19.30;99.90
59847;DHT22;45728;48.788;2.302;2023-09-30T09:45:21;19.10;99.90
59847;DHT22;45728;48.788;2.302;2023-09-30T09:47:49;18.50;99.90
59847;DHT22;45728;48.788;2.302;2023-09-30T09:50:17;18.50;99.90
59847;DHT22;45728;48.788;2.302;2023-09-30T09:52:44;18.60;99.90
59847;DHT22;45728;48.788;2.302;2023-09-30T09:55:12;18.50;99.90
59847;DHT22;45728;48.788;2.302;2023-09-30T09:57:41;18.60;99.90
59847;DHT22;45728;48.788;2.302;2023-09-30T10:00:29;18.80;99.90
59847;DHT22;45728;48.788;2.302;2023-09-30T10:02:57;18.90;99.90
59847;DHT22;45728;48.788;2.302;2023-09-30T10:05:24;19.20;99.90
59847;DHT22;45728;48.788;2.302;2023-09-30T10:08:02;19.10;99.90
59847;DHT22;45728;48.788;2.302;2023-09-30T10:10:30;19.00;99.90
59847;DHT22;45728;48.788;2.302;2023-09-30T10:12:57;19.50;99.90
59847;DHT22;45728;48.788;2.302;2023-09-30T10:18:03;20.50;99.90
59847;DHT22;45728;48.788;2.302;2023-09-30T10:20:31;20.80;99.90
59847;DHT22;45728;48.788;2.302;2023-09-30T10:25:43;20.60;99.90
59847;DHT22;45728;48.788;2.302;2023-09-30T10:31:17;20.90;99.90
59847;DHT22;45728;48.788;2.302;2023-09-30T10:36:36;20.50;99.90
59847;DHT22;45728;48.788;2.302;2023-09-30T10:39:04;20.70;99.90
59847;DHT22;45728;48.788;2.302;2023-09-30T10:44:37;20.80;99.90
59847;DHT22;45728;48.788;2.302;2023-09-30T10:49:54;20.50;99.90
59847;DHT22;45728;48.788;2.302;2023-09-30T10:52:25;20.60;99.90
59847;DHT22;45728;48.788;2.302;2023-09-30T10:54:51;20.00;99.90
59847;DHT22;45728;48.788;2.302;2023-09-30T10:57:27;19.80;99.90
59847;DHT22;45728;48.788;2.302;2023-09-30T11:00:09;19.70;99.90
59847;DHT22;45728;48.788;2.302;2023-09-30T11:02:52;20.30;99.90
59847;DHT22;45728;48.788;2.302;2023-09-30T11:05:19;20.80;99.90
59847;DHT22;45728;48.788;2.302;2023-09-30T11:07:49;21.20;99.90
59847;DHT22;45728;48.788;2.302;2023-09-30T11:10:18;21.10;99.90
59847;DHT22;45728;48.788;2.302;2023-09-30T11:12:56;21.40;99.90
59847;DHT22;45728;48.788;2.302;2023-09-30T11:15:24;21.80;99.90
59847;DHT22;45728;48.788;2.302;2023-09-30T11:17:52;22.00;99.90
59847;DHT22;45728;48.788;2.302;2023-09-30T11:20:18;22.10;99.90
59847;DHT22;45728;48.788;2.302;2023-09-30T11:22:46;22.30;99.90
59847;DHT22;45728;48.788;2.302;2023-09-30T11:25:18;22.40;99.90
59847;DHT22;45728;48.788;2.302;2023-09-30T11:27:45;22.40;99.90
59847;DHT22;45728;48.788;2.302;2023-09-30T11:30:13;22.40;99.90
59847;DHT22;45728;48.788;2.302;2023-09-30T11:32:39;22.00;99.90
59847;DHT22;45728;48.788;2.302;2023-09-30T11:35:23;22.30;99.90
59847;DHT22;45728;48.788;2.302;2023-09-30T11:37:51;22.30;99.90
59847;DHT22;45728;48.788;2.302;2023-09-30T11:40:18;21.90;99.90
59847;DHT22;45728;48.788;2.302;2023-09-30T11:43:08;22.10;99.90
59847;DHT22;45728;48.788;2.302;2023-09-30T11:45:37;22.50;99.90
59847;DHT22;45728;48.788;2.302;2023-09-30T11:48:17;22.40;99.90
59847;DHT22;45728;48.788;2.302;2023-09-30T11:50:48;22.60;99.90
59847;DHT22;45728;48.788;2.302;2023-09-30T11:53:17;22.90;99.90
59847;DHT22;45728;48.788;2.302;2023-09-30T11:55:44;23.20;99.90
59847;DHT22;45728;48.788;2.302;2023-09-30T11:58:10;23.20;99.90
59847;DHT22;45728;48.788;2.302;2023-09-30T12:00:41;23.20;99.90
59847;DHT22;45728;48.788;2.302;2023-09-30T12:03:07;23.10;99.90
59847;DHT22;45728;48.788;2.302;2023-09-30T12:05:33;23.30;99.90
59847;DHT22;45728;48.788;2.302;2023-09-30T12:07:59;23.60;99.90
59847;DHT22;45728;48.788;2.302;2023-09-30T12:10:25;23.50;99.90
59847;DHT22;45728;48.788;2.302;2023-09-30T12:12:51;23.20;99.90
59847;DHT22;45728;48.788;2.302;2023-09-30T12:15:17;23.50;99.90
59847;DHT22;45728;48.788;2.302;2023-09-30T12:17:45;23.10;99.90
59847;DHT22;45728;48.788;2.302;2023-09-30T12:20:11;22.70;99.90
59847;DHT22;45728;48.788;2.302;2023-09-30T12:22:40;23.10;99.90
59847;DHT22;45728;48.788;2.302;2023-09-30T12:25:07;22.90;99.90
59847;DHT22;45728;48.788;2.302;2023-09-30T12:27:34;23.00;99.90
59847;DHT22;45728;48.788;2.302;2023-09-30T12:30:00;23.10;99.90
59847;DHT22;45728;48.788;2.302;2023-09-30T12:32:26;23.20;99.90
59847;DHT22;45728;48.788;2.302;2023-09-30T12:34:55;22.90;99.90
59847;DHT22;45728;48.788;2.302;2023-09-30T12:37:21;22.20;99.90
59847;DHT22;45728;48.788;2.302;2023-09-30T12:39:47;22.20;99.90
59847;DHT22;45728;48.788;2.302;2023-09-30T12:42:13;22.10;99.90
59847;DHT22;45728;48.788;2.302;2023-09-30T12:44:40;22.70;99.90
59847;DHT22;45728;48.788;2.302;2023-09-30T12:47:06;23.00;99.90
59847;DHT22;45728;48.788;2.302;2023-09-30T12:49:32;23.20;99.90
59847;DHT22;45728;48.788;2.302;2023-09-30T12:51:58;23.30;99.90
59847;DHT22;45728;48.788;2.302;2023-09-30T12:54:25;23.40;99.90
59847;DHT22;45728;48.788;2.302;2023-09-30T12:56:51;23.20;99.90
59847;DHT22;45728;48.788;2.302;2023-09-30T12:59:17;22.70;99.90
59847;DHT22;45728;48.788;2.302;2023-09-30T13:01:44;22.80;99.90
59847;DHT22;45728;48.788;2.302;2023-09-30T13:04:10;23.10;99.90
59847;DHT22;45728;48.788;2.302;2023-09-30T13:06:37;23.00;99.90
59847;DHT22;45728;48.788;2.302;2023-09-30T13:09:03;23.00;99.90
59847;DHT22;45728;48.788;2.302;2023-09-30T13:11:30;23.00;99.90
59847;DHT22;45728;48.788;2.302;2023-09-30T13:13:56;23.60;99.90
59847;DHT22;45728;48.788;2.302;2023-09-30T13:16:22;24.00;99.90
59847;DHT22;45728;48.788;2.302;2023-09-30T13:18:48;24.10;99.90
59847;DHT22;45728;48.788;2.302;2023-09-30T13:21:15;23.80;99.90
59847;DHT22;45728;48.788;2.302;2023-09-30T13:23:41;23.60;99.90
59847;DHT22;45728;48.788;2.302;2023-09-30T13:26:08;23.80;99.90
59847;DHT22;45728;48.788;2.302;2023-09-30T13:28:34;23.80;99.90
59847;DHT22;45728;48.788;2.302;2023-09-30T13:31:00;23.70;99.90
59847;DHT22;45728;48.788;2.302;2023-09-30T13:33:26;23.60;99.90
59847;DHT22;45728;48.788;2.302;2023-09-30T13:35:52;23.70;99.90
59847;DHT22;45728;48.788;2.302;2023-09-30T13:38:18;23.70;99.90
59847;DHT22;45728;48.788;2.302;2023-09-30T13:40:45;23.80;99.90
59847;DHT22;45728;48.788;2.302;2023-09-30T13:43:11;23.80;99.90
59847;DHT22;45728;48.788;2.302;2023-09-30T13:45:38;23.60;99.90
59847;DHT22;45728;48.788;2.302;2023-09-30T13:48:04;23.40;99.90
59847;DHT22;45728;48.788;2.302;2023-09-30T13:50:30;23.50;99.90
59847;DHT22;45728;48.788;2.302;2023-09-30T13:52:56;23.50;99.90
59847;DHT22;45728;48.788;2.302;2023-09-30T13:55:22;23.50;99.90
59847;DHT22;45728;48.788;2.302;2023-09-30T13:57:48;23.60;99.90
59847;DHT22;45728;48.788;2.302;2023-09-30T14:00:15;23.40;99.90
59847;DHT22;45728;48.788;2.302;2023-09-30T14:02:43;23.20;99.90
59847;DHT22;45728;48.788;2.302;2023-09-30T14:05:10;23.20;99.90
59847;DHT22;45728;48.788;2.302;2023-09-30T14:07:36;23.30;99.90
59847;DHT22;45728;48.788;2.302;2023-09-30T14:10:03;23.40;99.90
59847;DHT22;45728;48.788;2.302;2023-09-30T14:12:29;23.50;99.90
59847;DHT22;45728;48.788;2.302;2023-09-30T14:14:56;23.50;99.90
59847;DHT22;45728;48.788;2.302;2023-09-30T14:17:22;23.50;99.90
59847;DHT22;45728;48.788;2.302;2023-09-30T14:19:48;23.60;99.90
59847;DHT22;45728;48.788;2.302;2023-09-30T14:22:15;23.60;99.90
59847;DHT22;45728;48.788;2.302;2023-09-30T14:24:41;23.60;99.90
59847;DHT22;45728;48.788;2.302;2023-09-30T14:27:07;23.80;99.90
59847;DHT22;45728;48.788;2.302;2023-09-30T14:29:34;23.80;99.90
59847;DHT22;45728;48.788;2.302;2023-09-30T14:32:00;23.80;99.90
59847;DHT22;45728;48.788;2.302;2023-09-30T14:34:27;24.00;99.90
59847;DHT22;45728;48.788;2.302;2023-09-30T14:36:54;24.10;99.90
59847;DHT22;45728;48.788;2.302;2023-09-30T14:39:20;24.00;99.90
59847;DHT22;45728;48.788;2.302;2023-09-30T14:41:46;23.90;99.90
59847;DHT22;45728;48.788;2.302;2023-09-30T14:44:12;23.70;99.90
59847;DHT22;45728;48.788;2.302;2023-09-30T14:46:39;23.70;99.90
59847;DHT22;45728;48.788;2.302;2023-09-30T14:49:05;23.80;99.90
59847;DHT22;45728;48.788;2.302;2023-09-30T14:51:35;23.70;99.90
59847;DHT22;45728;48.788;2.302;2023-09-30T14:54:02;23.70;99.90
59847;DHT22;45728;48.788;2.302;2023-09-30T14:56:28;23.70;99.90
59847;DHT22;45728;48.788;2.302;2023-09-30T14:58:55;23.70;99.90
59847;DHT22;45728;48.788;2.302;2023-09-30T15:01:21;23.80;99.90
59847;DHT22;45728;48.788;2.302;2023-09-30T15:03:48;23.90;99.90
59847;DHT22;45728;48.788;2.302;2023-09-30T15:06:14;23.90;99.90
59847;DHT22;45728;48.788;2.302;2023-09-30T15:08:40;23.90;99.90
59847;DHT22;45728;48.788;2.302;2023-09-30T15:11:12;23.70;99.90
59847;DHT22;45728;48.788;2.302;2023-09-30T15:13:38;23.70;99.90
59847;DHT22;45728;48.788;2.302;2023-09-30T15:16:05;23.80;99.90
59847;DHT22;45728;48.788;2.302;2023-09-30T15:18:31;23.80;99.90
59847;DHT22;45728;48.788;2.302;2023-09-30T15:20:57;23.80;99.90
59847;DHT22;45728;48.788;2.302;2023-09-30T15:23:23;23.70;99.90
59847;DHT22;45728;48.788;2.302;2023-09-30T15:25:49;23.70;99.90
59847;DHT22;45728;48.788;2.302;2023-09-30T15:28:15;23.60;99.90
59847;DHT22;45728;48.788;2.302;2023-09-30T15:30:41;23.50;99.90
59847;DHT22;45728;48.788;2.302;2023-09-30T15:33:07;23.30;99.90
59847;DHT22;45728;48.788;2.302;2023-09-30T15:35:34;23.30;99.90
59847;DHT22;45728;48.788;2.302;2023-09-30T15:38:00;23.30;99.90
59847;DHT22;45728;48.788;2.302;2023-09-30T15:40:26;23.40;99.90
59847;DHT22;45728;48.788;2.302;2023-09-30T15:42:52;23.40;99.90
59847;DHT22;45728;48.788;2.302;2023-09-30T15:45:18;23.30;99.90
59847;DHT22;45728;48.788;2.302;2023-09-30T15:47:45;23.30;99.90